sensor_id;sensor_type;location;lat;lon;timestamp;pressure;altitude;pressure_sealevel;temperature;humidity
74403;BME280;62837;51.082;13.744;2024-02-23T00:01:29;97707.70;;;12.13;71.86
74403;BME280;62837;51.082;13.744;2024-02-23T00:03:59;97720.60;;;12.16;72.16
74403;BME280;62837;51.082;13.744;2024-02-23T00:06:32;97721.85;;;12.18;72.00
74403;BME280;62837;51.082;13.744;2024-02-23T00:09:03;97729.89;;;12.18;71.96
74403;BME280;62837;51.082;13.744;2024-02-23T00:11:34;97734.39;;;12.20;72.28
74403;BME280;62837;51.082;13.744;2024-02-23T00:14:09;97726.45;;;12.22;71.80
74403;BME280;62837;51.082;13.744;2024-02-23T00:16:41;97727.98;;;12.25;71.44
74403;BME280;62837;51.082;13.744;2024-02-23T00:19:13;97731.27;;;12.25;70.92
74403;BME280;62837;51.082;13.744;2024-02-23T00:21:44;97727.02;;;12.25;70.47
74403;BME280;62837;51.082;13.744;2024-02-23T00:24:19;97730.21;;;12.28;71.14
74403;BME280;62837;51.082;13.744;2024-02-23T00:26:51;97738.05;;;12.31;71.15
74403;BME280;62837;51.082;13.744;2024-02-23T00:29:21;97741.86;;;12.34;70.85
74403;BME280;62837;51.082;13.744;2024-02-23T00:31:53;97748.36;;;12.35;70.99
74403;BME280;62837;51.082;13.744;2024-02-23T00:34:23;97749.61;;;12.37;71.45
74403;BME280;62837;51.082;13.744;2024-02-23T00:36:55;97741.91;;;12.39;71.19
74403;BME280;62837;51.082;13.744;2024-02-23T00:39:25;97743.45;;;12.40;70.61
74403;BME280;62837;51.082;13.744;2024-02-23T00:41:56;97745.27;;;12.41;71.32
74403;BME280;62837;51.082;13.744;2024-02-23T00:44:27;97729.84;;;12.43;70.93
74403;BME280;62837;51.082;13.744;2024-02-23T00:46:57;97717.33;;;12.43;69.96
74403;BME280;62837;51.082;13.744;2024-02-23T00:49:30;97716.62;;;12.41;69.00
74403;BME280;62837;51.082;13.744;2024-02-23T00:52:01;97719.86;;;12.39;69.06
74403;BME280;62837;51.082;13.744;2024-02-23T00:54:32;97718.50;;;12.38;69.30
74403;BME280;62837;51.082;13.744;2024-02-23T00:57:02;97732.31;;;12.37;68.91
74403;BME280;62837;51.082;13.744;2024-02-23T00:59:33;97732.70;;;12.37;68.60
74403;BME280;62837;51.082;13.744;2024-02-23T01:02:04;97719.40;;;12.36;67.78
74403;BME280;62837;51.082;13.744;2024-02-23T01:04:35;97724.77;;;12.36;67.18
74403;BME280;62837;51.082;13.744;2024-02-23T01:07:05;97721.98;;;12.35;66.88
74403;BME280;62837;51.082;13.744;2024-02-23T01:09:36;97721.03;;;12.34;66.58
74403;BME280;62837;51.082;13.744;2024-02-23T01:12:07;97728.23;;;12.33;67.02
74403;BME280;62837;51.082;13.744;2024-02-23T01:14:38;97737.66;;;12.33;66.75
74403;BME280;62837;51.082;13.744;2024-02-23T01:17:09;97742.98;;;12.31;66.12
74403;BME280;62837;51.082;13.744;2024-02-23T01:19:40;97746.73;;;12.30;66.67
74403;BME280;62837;51.082;13.744;2024-02-23T01:22:11;97756.79;;;12.29;66.02
74403;BME280;62837;51.082;13.744;2024-02-23T01:24:41;97760.26;;;12.27;65.01
74403;BME280;62837;51.082;13.744;2024-02-23T01:27:12;97770.08;;;12.25;63.85
74403;BME280;62837;51.082;13.744;2024-02-23T01:29:43;97773.84;;;12.22;64.66
74403;BME280;62837;51.082;13.744;2024-02-23T01:32:13;97764.89;;;12.21;65.37
74403;BME280;62837;51.082;13.744;2024-02-23T01:34:44;97778.20;;;12.21;65.37
74403;BME280;62837;51.082;13.744;2024-02-23T01:37:15;97792.11;;;12.23;64.82
74403;BME280;62837;51.082;13.744;2024-02-23T01:39:46;97807.06;;;12.22;64.70
74403;BME280;62837;51.082;13.744;2024-02-23T01:42:17;97822.85;;;12.23;64.21
74403;BME280;62837;51.082;13.744;2024-02-23T01:44:47;97834.16;;;12.25;63.91
74403;BME280;62837;51.082;13.744;2024-02-23T01:47:18;97833.52;;;12.24;63.65
74403;BME280;62837;51.082;13.744;2024-02-23T01:49:49;97833.34;;;12.22;63.15
74403;BME280;62837;51.082;13.744;2024-02-23T01:52:24;97839.48;;;12.20;63.29
74403;BME280;62837;51.082;13.744;2024-02-23T01:54:55;97848.48;;;12.19;63.53
74403;BME280;62837;51.082;13.744;2024-02-23T01:57:26;97847.89;;;12.16;63.36
74403;BME280;62837;51.082;13.744;2024-02-23T02:00:19;97840.69;;;12.15;62.40
74403;BME280;62837;51.082;13.744;2024-02-23T02:02:55;97846.67;;;12.15;62.85
74403;BME280;62837;51.082;13.744;2024-02-23T02:05:27;97858.13;;;12.14;62.85
74403;BME280;62837;51.082;13.744;2024-02-23T02:07:58;97873.25;;;12.13;63.40
74403;BME280;62837;51.082;13.744;2024-02-23T02:10:30;97876.77;;;12.12;63.45
74403;BME280;62837;51.082;13.744;2024-02-23T02:13:05;97872.11;;;12.10;62.99
74403;BME280;62837;51.082;13.744;2024-02-23T02:15:36;97865.53;;;12.07;63.66
74403;BME280;62837;51.082;13.744;2024-02-23T02:18:07;97887.30;;;12.06;64.11
74403;BME280;62837;51.082;13.744;2024-02-23T02:20:38;97891.44;;;12.05;64.58
74403;BME280;62837;51.082;13.744;2024-02-23T02:23:11;97899.01;;;12.06;64.77
74403;BME280;62837;51.082;13.744;2024-02-23T02:25:42;97915.85;;;12.04;63.72
74403;BME280;62837;51.082;13.744;2024-02-23T02:28:13;97923.79;;;12.00;63.42
74403;BME280;62837;51.082;13.744;2024-02-23T02:30:44;97917.05;;;11.97;62.98
74403;BME280;62837;51.082;13.744;2024-02-23T02:33:15;97919.89;;;11.93;62.60
74403;BME280;62837;51.082;13.744;2024-02-23T02:35:46;97921.62;;;11.90;62.57
74403;BME280;62837;51.082;13.744;2024-02-23T02:38:16;97929.65;;;11.88;62.96
74403;BME280;62837;51.082;13.744;2024-02-23T02:40:47;97924.59;;;11.86;62.54
74403;BME280;62837;51.082;13.744;2024-02-23T02:43:18;97932.65;;;11.85;62.44
74403;BME280;62837;51.082;13.744;2024-02-23T02:45:49;97933.99;;;11.82;62.15
74403;BME280;62837;51.082;13.744;2024-02-23T02:48:20;97937.23;;;11.80;61.93
74403;BME280;62837;51.082;13.744;2024-02-23T02:50:51;97941.33;;;11.77;61.50
74403;BME280;62837;51.082;13.744;2024-02-23T02:53:23;97946.71;;;11.74;61.86
74403;BME280;62837;51.082;13.744;2024-02-23T02:55:53;97959.23;;;11.73;63.00
74403;BME280;62837;51.082;13.744;2024-02-23T02:58:24;97961.77;;;11.73;63.22
74403;BME280;62837;51.082;13.744;2024-02-23T03:00:55;97969.05;;;11.72;62.08
74403;BME280;62837;51.082;13.744;2024-02-23T03:03:26;97974.42;;;11.68;61.14
74403;BME280;62837;51.082;13.744;2024-02-23T03:05:57;97984.91;;;11.63;60.94
74403;BME280;62837;51.082;13.744;2024-02-23T03:08:27;97992.69;;;11.59;61.93
74403;BME280;62837;51.082;13.744;2024-02-23T03:10:58;98001.33;;;11.56;61.06
74403;BME280;62837;51.082;13.744;2024-02-23T03:13:29;98000.00;;;11.52;61.73
74403;BME280;62837;51.082;13.744;2024-02-23T03:16:01;98000.67;;;11.50;61.69
74403;BME280;62837;51.082;13.744;2024-02-23T03:18:31;98008.67;;;11.46;61.28
74403;BME280;62837;51.082;13.744;2024-02-23T03:21:02;98013.91;;;11.42;61.09
74403;BME280;62837;51.082;13.744;2024-02-23T03:23:33;98023.30;;;11.40;61.20
74403;BME280;62837;51.082;13.744;2024-02-23T03:26:06;98026.98;;;11.36;60.84
74403;BME280;62837;51.082;13.744;2024-02-23T03:28:37;98035.77;;;11.29;59.89
74403;BME280;62837;51.082;13.744;2024-02-23T03:31:08;98042.69;;;11.22;58.98
74403;BME280;62837;51.082;13.744;2024-02-23T03:33:38;98046.98;;;11.18;59.45
74403;BME280;62837;51.082;13.744;2024-02-23T03:36:09;98059.39;;;11.16;59.83
74403;BME280;62837;51.082;13.744;2024-02-23T03:38:40;98064.31;;;11.13;59.96
74403;BME280;62837;51.082;13.744;2024-02-23T03:41:11;98067.27;;;11.09;60.26
74403;BME280;62837;51.082;13.744;2024-02-23T03:43:42;98070.42;;;11.07;60.75
74403;BME280;62837;51.082;13.744;2024-02-23T03:46:12;98078.14;;;11.05;60.81
74403;BME280;62837;51.082;13.744;2024-02-23T03:48:44;98093.33;;;11.03;60.33
74403;BME280;62837;51.082;13.744;2024-02-23T03:51:15;98112.38;;;10.98;60.32
74403;BME280;62837;51.082;13.744;2024-02-23T03:53:46;98125.55;;;10.93;60.03
74403;BME280;62837;51.082;13.744;2024-02-23T03:56:16;98139.42;;;10.88;58.82
74403;BME280;62837;51.082;13.744;2024-02-23T03:58:47;98146.86;;;10.83;56.76
74403;BME280;62837;51.082;13.744;2024-02-23T04:01:18;98159.73;;;10.76;54.46
74403;BME280;62837;51.082;13.744;2024-02-23T04:03:49;98169.23;;;10.68;53.06
74403;BME280;62837;51.082;13.744;2024-02-23T04:06:19;98179.05;;;10.61;52.52
74403;BME280;62837;51.082;13.744;2024-02-23T04:08:50;98195.51;;;10.53;52.55
74403;BME280;62837;51.082;13.744;2024-02-23T04:11:21;98209.01;;;10.47;52.92
74403;BME280;62837;51.082;13.744;2024-02-23T04:13:51;98216.64;;;10.41;52.95
74403;BME280;62837;51.082;13.744;2024-02-23T04:16:25;98222.36;;;10.36;53.17
74403;BME280;62837;51.082;13.744;2024-02-23T04:18:55;98222.60;;;10.30;52.79
74403;BME280;62837;51.082;13.744;2024-02-23T04:21:26;98219.83;;;10.24;52.47
74403;BME280;62837;51.082;13.744;2024-02-23T04:23:57;98221.68;;;10.20;53.02
74403;BME280;62837;51.082;13.744;2024-02-23T04:26:28;98215.60;;;10.17;53.09
74403;BME280;62837;51.082;13.744;2024-02-23T04:28:59;98219.36;;;10.14;53.24
74403;BME280;62837;51.082;13.744;2024-02-23T04:31:30;98219.95;;;10.13;53.02
74403;BME280;62837;51.082;13.744;2024-02-23T04:34:00;98216.81;;;10.11;52.78
74403;BME280;62837;51.082;13.744;2024-02-23T04:36:31;98223.08;;;10.08;53.02
74403;BME280;62837;51.082;13.744;2024-02-23T04:39:02;98231.37;;;10.08;53.66
74403;BME280;62837;51.082;13.744;2024-02-23T04:41:33;98228.35;;;10.05;53.96
74403;BME280;62837;51.082;13.744;2024-02-23T04:44:04;98237.27;;;10.02;53.77
74403;BME280;62837;51.082;13.744;2024-02-23T04:46:35;98243.36;;;10.00;53.88
74403;BME280;62837;51.082;13.744;2024-02-23T04:49:06;98248.60;;;9.99;54.62
74403;BME280;62837;51.082;13.744;2024-02-23T04:51:37;98251.30;;;9.98;54.83
74403;BME280;62837;51.082;13.744;2024-02-23T04:54:07;98262.05;;;9.97;55.05
74403;BME280;62837;51.082;13.744;2024-02-23T04:56:38;98269.40;;;9.96;54.91
74403;BME280;62837;51.082;13.744;2024-02-23T04:59:09;98275.75;;;9.91;54.54
74403;BME280;62837;51.082;13.744;2024-02-23T05:01:39;98282.17;;;9.89;55.28
74403;BME280;62837;51.082;13.744;2024-02-23T05:04:10;98289.92;;;9.86;55.38
74403;BME280;62837;51.082;13.744;2024-02-23T05:06:41;98295.39;;;9.81;55.29
74403;BME280;62837;51.082;13.744;2024-02-23T05:09:13;98312.40;;;9.77;55.31
74403;BME280;62837;51.082;13.744;2024-02-23T05:11:44;98328.90;;;9.72;55.88
74403;BME280;62837;51.082;13.744;2024-02-23T05:14:15;98332.74;;;9.70;55.91
74403;BME280;62837;51.082;13.744;2024-02-23T05:16:46;98337.31;;;9.69;56.77
74403;BME280;62837;51.082;13.744;2024-02-23T05:19:17;98342.30;;;9.68;56.49
74403;BME280;62837;51.082;13.744;2024-02-23T05:21:47;98345.36;;;9.64;56.53
74403;BME280;62837;51.082;13.744;2024-02-23T05:24:18;98342.14;;;9.63;57.87
74403;BME280;62837;51.082;13.744;2024-02-23T05:26:49;98337.39;;;9.64;56.99
74403;BME280;62837;51.082;13.744;2024-02-23T05:29:20;98344.64;;;9.64;57.39
74403;BME280;62837;51.082;13.744;2024-02-23T05:31:52;98345.75;;;9.63;57.41
74403;BME280;62837;51.082;13.744;2024-02-23T05:34:23;98344.65;;;9.61;56.90
74403;BME280;62837;51.082;13.744;2024-02-23T05:36:54;98346.73;;;9.57;56.48
74403;BME280;62837;51.082;13.744;2024-02-23T05:39:25;98346.86;;;9.54;56.76
74403;BME280;62837;51.082;13.744;2024-02-23T05:41:55;98351.74;;;9.51;56.68
74403;BME280;62837;51.082;13.744;2024-02-23T05:44:28;98348.54;;;9.49;56.21
74403;BME280;62837;51.082;13.744;2024-02-23T05:46:59;98345.34;;;9.47;56.39
74403;BME280;62837;51.082;13.744;2024-02-23T05:49:30;98350.11;;;9.46;57.01
74403;BME280;62837;51.082;13.744;2024-02-23T05:52:01;98354.40;;;9.46;56.16
74403;BME280;62837;51.082;13.744;2024-02-23T05:54:31;98365.80;;;9.43;55.24
74403;BME280;62837;51.082;13.744;2024-02-23T05:57:02;98364.48;;;9.40;57.23
74403;BME280;62837;51.082;13.744;2024-02-23T05:59:34;98365.80;;;9.44;56.69
74403;BME280;62837;51.082;13.744;2024-02-23T06:02:05;98378.69;;;9.44;56.85
74403;BME280;62837;51.082;13.744;2024-02-23T06:04:36;98388.16;;;9.45;56.56
74403;BME280;62837;51.082;13.744;2024-02-23T06:07:06;98391.02;;;9.45;55.94
74403;BME280;62837;51.082;13.744;2024-02-23T06:09:37;98388.61;;;9.44;57.05
74403;BME280;62837;51.082;13.744;2024-02-23T06:12:09;98392.41;;;9.54;59.09
74403;BME280;62837;51.082;13.744;2024-02-23T06:14:40;98407.02;;;9.75;60.38
74403;BME280;62837;51.082;13.744;2024-02-23T06:17:11;98420.97;;;9.95;58.63
74403;BME280;62837;51.082;13.744;2024-02-23T06:19:42;98420.63;;;10.11;59.07
74403;BME280;62837;51.082;13.744;2024-02-23T06:22:13;98415.17;;;10.29;58.53
74403;BME280;62837;51.082;13.744;2024-02-23T06:24:46;98412.98;;;10.34;54.83
74403;BME280;62837;51.082;13.744;2024-02-23T06:27:16;98421.76;;;10.21;54.36
74403;BME280;62837;51.082;13.744;2024-02-23T06:29:47;98435.52;;;10.07;53.75
74403;BME280;62837;51.082;13.744;2024-02-23T06:32:18;98440.61;;;9.90;53.68
74403;BME280;62837;51.082;13.744;2024-02-23T06:34:49;98443.16;;;9.76;53.78
74403;BME280;62837;51.082;13.744;2024-02-23T06:37:20;98447.86;;;9.65;54.14
74403;BME280;62837;51.082;13.744;2024-02-23T06:39:50;98448.14;;;9.58;54.58
74403;BME280;62837;51.082;13.744;2024-02-23T06:42:23;98448.20;;;9.54;54.52
74403;BME280;62837;51.082;13.744;2024-02-23T06:44:54;98448.19;;;9.52;54.74
74403;BME280;62837;51.082;13.744;2024-02-23T06:47:26;98447.42;;;9.51;54.75
74403;BME280;62837;51.082;13.744;2024-02-23T06:49:56;98451.60;;;9.51;54.64
74403;BME280;62837;51.082;13.744;2024-02-23T06:52:27;98451.92;;;9.51;54.71
74403;BME280;62837;51.082;13.744;2024-02-23T06:54:58;98453.61;;;9.52;54.85
74403;BME280;62837;51.082;13.744;2024-02-23T06:57:28;98459.05;;;9.51;54.91
74403;BME280;62837;51.082;13.744;2024-02-23T07:00:00;98453.77;;;9.52;55.13
74403;BME280;62837;51.082;13.744;2024-02-23T07:02:31;98453.42;;;9.53;54.94
74403;BME280;62837;51.082;13.744;2024-02-23T07:05:04;98447.40;;;9.49;54.44
74403;BME280;62837;51.082;13.744;2024-02-23T07:07:35;98446.86;;;9.42;54.23
74403;BME280;62837;51.082;13.744;2024-02-23T07:10:08;98448.95;;;9.39;54.87
74403;BME280;62837;51.082;13.744;2024-02-23T07:12:40;98454.65;;;9.39;55.78
74403;BME280;62837;51.082;13.744;2024-02-23T07:15:11;98448.19;;;9.38;55.36
74403;BME280;62837;51.082;13.744;2024-02-23T07:17:41;98450.62;;;9.37;55.28
74403;BME280;62837;51.082;13.744;2024-02-23T07:20:13;98470.85;;;9.34;55.18
74403;BME280;62837;51.082;13.744;2024-02-23T07:22:46;98481.39;;;9.33;55.19
74403;BME280;62837;51.082;13.744;2024-02-23T07:25:18;98486.61;;;9.32;55.72
74403;BME280;62837;51.082;13.744;2024-02-23T07:27:50;98489.92;;;9.31;55.62
74403;BME280;62837;51.082;13.744;2024-02-23T07:30:21;98494.02;;;9.30;55.98
74403;BME280;62837;51.082;13.744;2024-02-23T07:32:52;98492.92;;;9.29;55.95
74403;BME280;62837;51.082;13.744;2024-02-23T07:35:23;98493.08;;;9.26;55.67
74403;BME280;62837;51.082;13.744;2024-02-23T07:37:53;98505.55;;;9.25;56.07
74403;BME280;62837;51.082;13.744;2024-02-23T07:40:25;98510.50;;;9.23;56.32
74403;BME280;62837;51.082;13.744;2024-02-23T07:42:56;98512.95;;;9.25;56.31
74403;BME280;62837;51.082;13.744;2024-02-23T07:45:27;98506.40;;;9.23;55.92
74403;BME280;62837;51.082;13.744;2024-02-23T07:47:57;98514.83;;;9.21;56.40
74403;BME280;62837;51.082;13.744;2024-02-23T07:50:28;98519.95;;;9.23;56.36
74403;BME280;62837;51.082;13.744;2024-02-23T07:52:59;98520.86;;;9.24;56.33
74403;BME280;62837;51.082;13.744;2024-02-23T07:55:30;98535.45;;;9.24;56.34
74403;BME280;62837;51.082;13.744;2024-02-23T07:58:01;98543.30;;;9.24;55.62
74403;BME280;62837;51.082;13.744;2024-02-23T08:00:31;98547.09;;;9.23;55.72
74403;BME280;62837;51.082;13.744;2024-02-23T08:03:05;98555.93;;;9.22;56.02
74403;BME280;62837;51.082;13.744;2024-02-23T08:05:37;98570.31;;;9.21;55.94
74403;BME280;62837;51.082;13.744;2024-02-23T08:08:08;98578.55;;;9.21;55.93
74403;BME280;62837;51.082;13.744;2024-02-23T08:10:39;98581.80;;;9.23;56.21
74403;BME280;62837;51.082;13.744;2024-02-23T08:13:10;98581.31;;;9.22;55.85
74403;BME280;62837;51.082;13.744;2024-02-23T08:15:40;98577.67;;;9.21;55.86
74403;BME280;62837;51.082;13.744;2024-02-23T08:18:11;98576.13;;;9.21;55.96
74403;BME280;62837;51.082;13.744;2024-02-23T08:20:42;98578.89;;;9.21;55.94
74403;BME280;62837;51.082;13.744;2024-02-23T08:23:13;98578.69;;;9.18;55.57
74403;BME280;62837;51.082;13.744;2024-02-23T08:25:44;98575.42;;;9.16;55.77
74403;BME280;62837;51.082;13.744;2024-02-23T08:28:15;98573.98;;;9.13;55.70
74403;BME280;62837;51.082;13.744;2024-02-23T08:30:46;98572.13;;;9.12;55.49
74403;BME280;62837;51.082;13.744;2024-02-23T08:33:16;98570.47;;;9.13;56.10
74403;BME280;62837;51.082;13.744;2024-02-23T08:35:47;98565.86;;;9.14;55.99
74403;BME280;62837;51.082;13.744;2024-02-23T08:38:19;98570.80;;;9.14;55.82
74403;BME280;62837;51.082;13.744;2024-02-23T08:40:49;98564.71;;;9.14;55.87
74403;BME280;62837;51.082;13.744;2024-02-23T08:43:20;98560.11;;;9.14;55.45
74403;BME280;62837;51.082;13.744;2024-02-23T08:45:51;98554.21;;;9.11;55.77
74403;BME280;62837;51.082;13.744;2024-02-23T08:48:22;98549.98;;;9.08;55.88
74403;BME280;62837;51.082;13.744;2024-02-23T08:50:53;98550.64;;;9.07;56.06
74403;BME280;62837;51.082;13.744;2024-02-23T08:53:24;98547.43;;;9.06;56.17
74403;BME280;62837;51.082;13.744;2024-02-23T08:55:54;98548.65;;;9.05;56.47
74403;BME280;62837;51.082;13.744;2024-02-23T08:58:25;98543.38;;;9.06;56.38
74403;BME280;62837;51.082;13.744;2024-02-23T09:00:56;98556.20;;;9.10;56.62
74403;BME280;62837;51.082;13.744;2024-02-23T09:03:27;98566.97;;;9.17;56.84
74403;BME280;62837;51.082;13.744;2024-02-23T09:05:58;98575.14;;;9.25;56.42
74403;BME280;62837;51.082;13.744;2024-02-23T09:08:29;98580.63;;;9.37;56.53
74403;BME280;62837;51.082;13.744;2024-02-23T09:11:00;98586.54;;;9.50;56.16
74403;BME280;62837;51.082;13.744;2024-02-23T09:13:31;98587.76;;;9.64;56.11
74403;BME280;62837;51.082;13.744;2024-02-23T09:16:02;98591.23;;;9.78;55.90
74403;BME280;62837;51.082;13.744;2024-02-23T09:18:33;98597.69;;;9.94;55.96
74403;BME280;62837;51.082;13.744;2024-02-23T09:21:05;98598.93;;;10.09;55.75
74403;BME280;62837;51.082;13.744;2024-02-23T09:23:35;98605.27;;;10.23;55.10
74403;BME280;62837;51.082;13.744;2024-02-23T09:26:11;98608.16;;;10.43;54.72
74403;BME280;62837;51.082;13.744;2024-02-23T09:28:42;98607.41;;;10.63;54.57
74403;BME280;62837;51.082;13.744;2024-02-23T09:31:14;98616.79;;;10.82;53.88
74403;BME280;62837;51.082;13.744;2024-02-23T09:33:45;98616.83;;;10.98;53.34
74403;BME280;62837;51.082;13.744;2024-02-23T09:36:18;98614.23;;;11.04;52.77
74403;BME280;62837;51.082;13.744;2024-02-23T09:38:49;98614.20;;;11.05;52.22
74403;BME280;62837;51.082;13.744;2024-02-23T09:41:22;98614.63;;;11.03;52.18
74403;BME280;62837;51.082;13.744;2024-02-23T09:43:53;98610.71;;;11.06;51.88
74403;BME280;62837;51.082;13.744;2024-02-23T09:46:25;98608.73;;;11.06;52.16
74403;BME280;62837;51.082;13.744;2024-02-23T09:48:57;98611.91;;;11.07;51.78
74403;BME280;62837;51.082;13.744;2024-02-23T09:51:29;98609.69;;;11.05;51.62
74403;BME280;62837;51.082;13.744;2024-02-23T09:54:00;98608.73;;;11.04;51.84
74403;BME280;62837;51.082;13.744;2024-02-23T09:56:32;98605.08;;;11.02;52.03
74403;BME280;62837;51.082;13.744;2024-02-23T09:59:04;98605.45;;;11.02;52.00
74403;BME280;62837;51.082;13.744;2024-02-23T10:01:35;98597.98;;;11.02;51.94
74403;BME280;62837;51.082;13.744;2024-02-23T10:04:07;98594.06;;;11.02;52.12
74403;BME280;62837;51.082;13.744;2024-02-23T10:06:38;98589.27;;;11.06;52.02
74403;BME280;62837;51.082;13.744;2024-02-23T10:09:09;98591.85;;;11.03;51.97
74403;BME280;62837;51.082;13.744;2024-02-23T10:11:42;98596.66;;;11.02;51.88
74403;BME280;62837;51.082;13.744;2024-02-23T10:14:13;98598.46;;;11.01;51.32
74403;BME280;62837;51.082;13.744;2024-02-23T10:16:43;98609.21;;;10.99;51.26
74403;BME280;62837;51.082;13.744;2024-02-23T10:19:14;98612.18;;;10.99;50.71
74403;BME280;62837;51.082;13.744;2024-02-23T10:21:46;98617.34;;;10.94;50.43
74403;BME280;62837;51.082;13.744;2024-02-23T10:24:18;98625.58;;;10.89;50.71
74403;BME280;62837;51.082;13.744;2024-02-23T10:26:50;98626.98;;;10.83;50.72
74403;BME280;62837;51.082;13.744;2024-02-23T10:29:21;98630.44;;;10.79;50.83
74403;BME280;62837;51.082;13.744;2024-02-23T10:31:52;98631.71;;;10.78;50.85
74403;BME280;62837;51.082;13.744;2024-02-23T10:34:28;98640.88;;;10.80;50.73
74403;BME280;62837;51.082;13.744;2024-02-23T10:37:00;98647.77;;;10.77;50.30
74403;BME280;62837;51.082;13.744;2024-02-23T10:39:34;98659.21;;;10.78;50.58
74403;BME280;62837;51.082;13.744;2024-02-23T10:42:10;98660.52;;;10.79;50.31
74403;BME280;62837;51.082;13.744;2024-02-23T10:44:41;98661.01;;;10.75;50.15
74403;BME280;62837;51.082;13.744;2024-02-23T10:47:13;98668.31;;;10.73;50.51
74403;BME280;62837;51.082;13.744;2024-02-23T10:49:45;98661.30;;;10.71;50.60
74403;BME280;62837;51.082;13.744;2024-02-23T10:52:18;98657.13;;;10.71;50.43
74403;BME280;62837;51.082;13.744;2024-02-23T10:54:50;98650.58;;;10.71;50.25
74403;BME280;62837;51.082;13.744;2024-02-23T10:57:21;98646.49;;;10.75;50.35
74403;BME280;62837;51.082;13.744;2024-02-23T10:59:52;98659.37;;;10.78;50.68
74403;BME280;62837;51.082;13.744;2024-02-23T11:02:26;98665.96;;;10.78;50.21
74403;BME280;62837;51.082;13.744;2024-02-23T11:05:00;98680.81;;;10.75;49.92
74403;BME280;62837;51.082;13.744;2024-02-23T11:07:34;98688.21;;;10.73;50.03
74403;BME280;62837;51.082;13.744;2024-02-23T11:10:12;98690.75;;;10.72;49.62
74403;BME280;62837;51.082;13.744;2024-02-23T11:12:44;98698.98;;;10.73;49.91
74403;BME280;62837;51.082;13.744;2024-02-23T11:15:29;98697.45;;;10.74;48.92
74403;BME280;62837;51.082;13.744;2024-02-23T11:18:01;98692.77;;;10.73;49.13
74403;BME280;62837;51.082;13.744;2024-02-23T11:20:38;98697.76;;;10.77;48.85
74403;BME280;62837;51.082;13.744;2024-02-23T11:23:15;98700.82;;;10.79;48.64
74403;BME280;62837;51.082;13.744;2024-02-23T11:26:00;98693.77;;;10.79;48.81
74403;BME280;62837;51.082;13.744;2024-02-23T11:28:34;98697.08;;;10.83;48.57
74403;BME280;62837;51.082;13.744;2024-02-23T11:31:14;98697.83;;;10.87;48.80
74403;BME280;62837;51.082;13.744;2024-02-23T11:33:52;98694.56;;;10.97;48.94
74403;BME280;62837;51.082;13.744;2024-02-23T11:36:29;98692.20;;;11.05;49.04
74403;BME280;62837;51.082;13.744;2024-02-23T11:39:02;98686.41;;;11.09;48.39
74403;BME280;62837;51.082;13.744;2024-02-23T11:41:33;98677.50;;;11.06;47.45
74403;BME280;62837;51.082;13.744;2024-02-23T11:44:04;98676.44;;;11.01;46.98
74403;BME280;62837;51.082;13.744;2024-02-23T11:46:37;98663.01;;;10.96;47.41
74403;BME280;62837;51.082;13.744;2024-02-23T11:49:07;98664.46;;;10.97;47.69
74403;BME280;62837;51.082;13.744;2024-02-23T11:51:38;98666.33;;;10.97;47.39
74403;BME280;62837;51.082;13.744;2024-02-23T11:54:09;98673.05;;;10.94;47.16
74403;BME280;62837;51.082;13.744;2024-02-23T11:56:41;98681.00;;;10.92;46.57
74403;BME280;62837;51.082;13.744;2024-02-23T11:59:12;98683.83;;;10.89;46.97
74403;BME280;62837;51.082;13.744;2024-02-23T12:01:45;98686.09;;;10.88;46.66
74403;BME280;62837;51.082;13.744;2024-02-23T12:04:16;98688.52;;;10.84;46.45
74403;BME280;62837;51.082;13.744;2024-02-23T12:06:47;98686.52;;;10.82;46.62
74403;BME280;62837;51.082;13.744;2024-02-23T12:09:18;98684.79;;;10.83;46.92
74403;BME280;62837;51.082;13.744;2024-02-23T12:11:49;98679.54;;;10.88;47.22
74403;BME280;62837;51.082;13.744;2024-02-23T12:14:19;98677.65;;;10.89;47.12
74403;BME280;62837;51.082;13.744;2024-02-23T12:16:52;98680.93;;;10.93;47.00
74403;BME280;62837;51.082;13.744;2024-02-23T12:19:23;98686.09;;;10.94;46.56
74403;BME280;62837;51.082;13.744;2024-02-23T12:21:54;98684.21;;;10.94;46.86
74403;BME280;62837;51.082;13.744;2024-02-23T12:24:31;98684.59;;;10.97;47.06
74403;BME280;62837;51.082;13.744;2024-02-23T12:27:02;98689.75;;;11.04;47.49
74403;BME280;62837;51.082;13.744;2024-02-23T12:29:34;98687.01;;;11.12;47.76
74403;BME280;62837;51.082;13.744;2024-02-23T12:32:06;98682.48;;;11.21;47.05
74403;BME280;62837;51.082;13.744;2024-02-23T12:34:37;98672.95;;;11.22;46.72
74403;BME280;62837;51.082;13.744;2024-02-23T12:37:08;98669.47;;;11.23;46.99
74403;BME280;62837;51.082;13.744;2024-02-23T12:39:39;98666.66;;;11.29;47.25
74403;BME280;62837;51.082;13.744;2024-02-23T12:42:10;98663.58;;;11.37;47.03
74403;BME280;62837;51.082;13.744;2024-02-23T12:44:41;98659.02;;;11.44;46.04
74403;BME280;62837;51.082;13.744;2024-02-23T12:47:14;98656.80;;;11.48;46.19
74403;BME280;62837;51.082;13.744;2024-02-23T12:49:45;98650.46;;;11.51;45.64
74403;BME280;62837;51.082;13.744;2024-02-23T12:52:16;98657.39;;;11.51;46.36
74403;BME280;62837;51.082;13.744;2024-02-23T12:54:46;98664.39;;;11.51;45.62
74403;BME280;62837;51.082;13.744;2024-02-23T12:57:21;98662.61;;;11.49;45.12
74403;BME280;62837;51.082;13.744;2024-02-23T12:59:52;98670.95;;;11.45;44.51
74403;BME280;62837;51.082;13.744;2024-02-23T13:02:22;98673.80;;;11.37;44.46
74403;BME280;62837;51.082;13.744;2024-02-23T13:04:53;98665.61;;;11.31;44.50
74403;BME280;62837;51.082;13.744;2024-02-23T13:07:27;98670.73;;;11.30;44.29
74403;BME280;62837;51.082;13.744;2024-02-23T13:10:00;98672.02;;;11.25;44.69
74403;BME280;62837;51.082;13.744;2024-02-23T13:12:31;98664.35;;;11.20;44.89
74403;BME280;62837;51.082;13.744;2024-02-23T13:15:02;98662.98;;;11.17;44.98